This is the latest recevied weather packets stored in our database for station/object N2ZVN. If no packets are shown the sender has not sent any weather packets the latest 1 day(s).
| Time | Temp. | Humidity | Pressure | Rain* | Wind** | Luminosity | Snow |
|---|---|---|---|---|---|---|---|
| 1778023688 | 7.78° C | 93% | 1009.4 hPa | 1.27 mm | 0 m/s | 6 W/m² | - |
| 1778023385 | 7.78° C | 93% | 1009.7 hPa | 1.78 mm | 0 m/s | 6 W/m² | - |
| 1778023082 | 7.78° C | 93% | 1009.7 hPa | 1.27 mm | 0 m/s | 7 W/m² | - |
| 1778022780 | 7.78° C | 92% | 1009.8 hPa | 3.05 mm | 0 m/s | 8 W/m² | - |
| 1778022478 | 7.78° C | 92% | 1009.7 hPa | 1.78 mm | 0.45 m/s, 329° | 9 W/m² | - |
| 1778022175 | 7.78° C | 92% | 1009.7 hPa | 1.27 mm | 0 m/s | 9 W/m² | - |
| 1778021871 | 7.78° C | 92% | 1009.9 hPa | 3.05 mm | 0.45 m/s, 332° | 10 W/m² | - |
| 1778021569 | 7.78° C | 91% | 1010 hPa | 1.78 mm | 0.45 m/s, 332° | 11 W/m² | - |
| 1778021263 | 8.33° C | 90% | 1009.9 hPa | 1.27 mm | 0.45 m/s, 332° | 12 W/m² | - |
| 1778020961 | 8.33° C | 90% | 1009.7 hPa | 3.05 mm | 0 m/s | 14 W/m² | - |
| 1778020658 | 8.33° C | 89% | 1009.4 hPa | 3.05 mm | 0.45 m/s, 333° | 16 W/m² | - |
| 1778020355 | 8.33° C | 89% | 1009.2 hPa | 1.27 mm | 0 m/s | 17 W/m² | - |
| 1778020051 | 8.33° C | 88% | 1009.3 hPa | 1.78 mm | 0 m/s | 21 W/m² | - |
| 1778019747 | 8.33° C | 88% | 1009.3 hPa | 1.78 mm | 0 m/s | 24 W/m² | - |
| 1778019445 | 8.33° C | 85% | 1009.4 hPa | 1.27 mm | 0.45 m/s, 333° | 27 W/m² | - |
| 1778019141 | 8.33° C | 86% | 1009.5 hPa | 1.27 mm | 0 m/s | 25 W/m² | - |
| 1778018838 | 8.89° C | 83% | 1009.5 hPa | 1.78 mm | 0.45 m/s, 340° | 30 W/m² | - |
| 1778018536 | 8.89° C | 83% | 1009.7 hPa | 1.27 mm | 0 m/s | 32 W/m² | - |
| 1778018234 | 8.89° C | 80% | 1009 hPa | 1.27 mm | 0.45 m/s, 341° | 38 W/m² | - |
| 1778017931 | 9.44° C | 78% | 1009.1 hPa | 1.78 mm | 0.45 m/s, 346° | 35 W/m² | - |
| 1778017629 | 10° C | 76% | 1009.2 hPa | 1.78 mm | 0.89 m/s, 322° | 33 W/m² | - |
| 1778017326 | 10.56° C | 74% | 1009.3 hPa | 0 mm | 0.45 m/s, 327° | 36 W/m² | - |
| 1778017023 | 10.56° C | 71% | 1009 hPa | 0 mm | 0.89 m/s, 307° | 27 W/m² | - |
| 1778016720 | 11.11° C | 74% | 1008.8 hPa | 0 mm | 0.45 m/s, 23° | 42 W/m² | - |
| 1778016416 | 11.67° C | 72% | 1008.7 hPa | 0 mm | 0 m/s | 20 W/m² | - |
* Rain latest hour (hover to see other rain measurements)
** Current wind speed in m/s (hover to see current wind gust speed)